Ely, MN

8:33 AM CDT on August 24, 2016 (GMT -0500)
Ely Municipal | | Change Station

Elev 1453 ft 47.82 °N, 91.83 °W | Updated 20 minutes ago

Clear
Clear
64 °F
Feels Like 64 °F
N
5
Wind Variable Wind from SSW

Today
High -- | Low -- °F
--% Chance of Precip.
Yesterday
High -- | Low -- °F
Precip. -- in
Pressure 29.80 in
Visibility 10.0 miles
Clouds Clear
Dew Point 63 °F
Humidity 94%
Rainfall 0.00 in
Snow Depth Not available.
6:15 AM 8:02 PM
Waning Gibbous, 57% visible
METAR KELO 241313Z AUTO 20004KT 10SM CLR 18/17 A2980 RMK AO2
Pressure 29.80 in
Visibility 10.0 miles
Clouds Clear
Dew Point 63 °F
Humidity 94%
Rainfall 0.00 in
Snow Depth Not available.
6:15 AM 8:02 PM
Waning Gibbous, 57% visible
METAR KELO 241313Z AUTO 20004KT 10SM CLR 18/17 A2980 RMK AO2

10-Day Weather Forecast

Almanac

Astronomy

Aug. 24, 2016 Rise Set
Actual Time
Civil Twilight
Nautical Twilight
Astronomical Twilight
Moon
Length of Visible Light
Length of Day
Tomorrow will be .
, % of the Moon is Illuminated

Today's Extremes

State Highs State Lows

Community

WunderPhotos

Upload Photos

1,934,599 photos uploaded!

WunderBlog® & News

Nearby

Air Quality

  Air Quality AQ Index Pollutant
Not available.

Snow Depth

Station Depth Elevation

Earthquake Activity

City Distance Mag. Time & Date
Minimum magnitude displayed is 2.5.

Coastal Water Temperatures

Place Temperature

Stations

Nearby Weather Stations

Station Location Temp. Windchill Dew Point Humidity Wind Precip. Elev Updated Type
                   

Watches & Warnings

There are currently no watches in effect.